Time;durP1;ratioP1;P1;durP2;ratioP2;P2;SDS_P1;SDS_P2;PMS_P1;PMS_P2;Temp;Humidity;BMP_temperature;BMP_pressure;BME280_temperature;BME280_humidity;BME280_pressure;Samples;Min_cycle;Max_cycle;Signal;HPM_P1;HPM_P2
2023/04/08 00:00:28;;;;;;;16.73;8.77;;;6.20;99.90;;;;;;4980226;28;20600;-59
2023/04/08 00:02:55;;;;;;;13.00;8.17;;;6.20;99.90;;;;;;4974211;28;20439;-55
2023/04/08 00:05:22;;;;;;;14.67;7.87;;;6.20;99.90;;;;;;4978506;28;20673;-57
2023/04/08 00:07:50;;;;;;;13.47;8.73;;;6.20;99.90;;;;;;4962952;28;20303;-53
2023/04/08 00:10:17;;;;;;;13.30;8.30;;;6.20;99.90;;;;;;4972612;28;20198;-55
2023/04/08 00:12:43;;;;;;;10.97;8.37;;;6.20;99.90;;;;;;4979604;28;20212;-53
2023/04/08 00:15:12;;;;;;;12.93;8.83;;;6.20;99.90;;;;;;4971395;28;20211;-55
2023/04/08 00:17:39;;;;;;;14.87;8.57;;;6.20;99.90;;;;;;4970336;28;20197;-56
2023/04/08 00:20:07;;;;;;;13.77;8.67;;;6.20;99.90;;;;;;4981927;28;20198;-50
2023/04/08 00:22:35;;;;;;;14.73;8.10;;;6.20;99.90;;;;;;4968409;28;20251;-59
2023/04/08 00:25:05;;;;;;;9.97;7.40;;;6.20;99.90;;;;;;4999977;28;20224;-53
2023/04/08 00:27:32;;;;;;;12.30;8.47;;;6.20;99.90;;;;;;4990227;28;20497;-56
2023/04/08 00:30:00;;;;;;;14.87;7.90;;;6.20;99.90;;;;;;4970162;28;20219;-52
2023/04/08 00:32:28;;;;;;;11.13;7.87;;;6.20;99.90;;;;;;4977191;28;20224;-54
2023/04/08 00:34:55;;;;;;;10.90;7.83;;;6.20;99.90;;;;;;5001189;28;20282;-49
2023/04/08 00:37:23;;;;;;;13.53;7.67;;;6.20;99.90;;;;;;4995651;28;20209;-59
2023/04/08 00:39:52;;;;;;;11.67;7.63;;;6.20;99.90;;;;;;4973635;28;20207;-52
2023/04/08 00:42:20;;;;;;;12.23;7.43;;;6.20;99.90;;;;;;4989690;28;20310;-58
2023/04/08 00:44:47;;;;;;;10.03;7.43;;;6.20;99.90;;;;;;4973331;28;21013;-52
2023/04/08 00:47:15;;;;;;;15.07;8.13;;;6.20;99.90;;;;;;4977862;28;20209;-53
2023/04/08 00:49:43;;;;;;;13.70;7.53;;;6.20;99.90;;;;;;4983658;28;20213;-49
2023/04/08 00:52:11;;;;;;;13.87;8.00;;;6.20;99.90;;;;;;5002249;28;20216;-51
2023/04/08 00:54:38;;;;;;;12.87;7.23;;;6.20;99.90;;;;;;4963442;28;20228;-52
2023/04/08 00:57:06;;;;;;;11.03;7.43;;;6.20;99.90;;;;;;4976238;28;20283;-56
2023/04/08 00:59:34;;;;;;;12.47;8.73;;;6.20;99.90;;;;;;4994253;28;20973;-54
2023/04/08 01:02:12;;;;;;;10.80;7.57;;;6.20;99.90;;;;;;4990582;28;20200;-56
2023/04/08 01:04:48;;;;;;;12.03;8.53;;;6.20;99.90;;;;;;5001898;28;20209;-55
2023/04/08 01:07:24;;;;;;;16.10;8.60;;;6.20;99.90;;;;;;4994923;28;20274;-53
2023/04/08 01:09:54;;;;;;;14.83;8.67;;;6.20;99.90;;;;;;4952476;28;20563;-56
2023/04/08 01:12:26;;;;;;;15.03;8.93;;;6.10;99.90;;;;;;4983327;28;20328;-56
2023/04/08 01:15:00;;;;;;;16.03;8.33;;;6.10;99.90;;;;;;5022817;28;20273;-48
2023/04/08 01:17:28;;;;;;;13.00;8.63;;;6.20;99.90;;;;;;4990029;28;20267;-55
2023/04/08 01:19:58;;;;;;;13.20;8.23;;;6.10;99.90;;;;;;5008218;28;20717;-53
2023/04/08 01:22:32;;;;;;;12.30;8.20;;;6.10;99.90;;;;;;4998827;28;20283;-54
2023/04/08 01:25:05;;;;;;;12.73;8.60;;;6.10;99.90;;;;;;4962063;28;20804;-52
2023/04/08 01:27:35;;;;;;;11.00;8.17;;;6.10;99.90;;;;;;4968138;28;20214;-56
2023/04/08 01:30:05;;;;;;;14.67;8.70;;;6.10;99.90;;;;;;4983519;28;20201;-52
2023/04/08 01:32:34;;;;;;;13.67;9.43;;;6.10;99.90;;;;;;4959060;28;20279;-59
2023/04/08 01:35:01;;;;;;;15.20;8.97;;;6.10;99.90;;;;;;4980871;28;20197;-50
2023/04/08 01:37:30;;;;;;;13.83;8.63;;;6.10;99.90;;;;;;4984559;28;20276;-57
2023/04/08 01:39:58;;;;;;;12.60;8.97;;;6.10;99.90;;;;;;4959372;28;20202;-55
2023/04/08 01:42:27;;;;;;;13.50;8.87;;;6.10;99.90;;;;;;4971805;28;20260;-56
2023/04/08 01:44:58;;;;;;;13.13;8.13;;;6.00;99.90;;;;;;4978209;28;20207;-52
2023/04/08 01:47:25;;;;;;;12.53;8.37;;;6.10;99.90;;;;;;4981837;28;20578;-57
2023/04/08 01:49:53;;;;;;;11.80;8.10;;;6.00;99.90;;;;;;4975144;28;20197;-50
2023/04/08 01:52:22;;;;;;;10.73;8.03;;;6.00;99.90;;;;;;4996534;28;20229;-55
2023/04/08 01:54:49;;;;;;;11.73;8.57;;;6.00;99.90;;;;;;4939716;28;24291;-55
2023/04/08 01:57:22;;;;;;;10.80;7.37;;;6.00;99.90;;;;;;4984830;28;20738;-50
2023/04/08 01:59:52;;;;;;;12.43;7.93;;;6.00;99.90;;;;;;4957135;28;20200;-54
2023/04/08 02:02:24;;;;;;;11.07;8.60;;;6.00;99.90;;;;;;4983320;28;20225;-56
2023/04/08 02:04:51;;;;;;;11.47;8.23;;;6.10;99.90;;;;;;4973946;28;20216;-50
2023/04/08 02:07:18;;;;;;;12.77;7.80;;;6.10;99.90;;;;;;4977862;28;20194;-56
2023/04/08 02:09:46;;;;;;;11.30;7.60;;;6.00;99.90;;;;;;4977051;28;20717;-51
2023/04/08 02:12:12;;;;;;;16.83;8.60;;;6.00;99.90;;;;;;4968209;28;20239;-53
2023/04/08 02:14:39;;;;;;;13.17;8.77;;;6.00;99.90;;;;;;4970662;28;20205;-58
2023/04/08 02:17:11;;;;;;;12.53;8.07;;;6.00;99.90;;;;;;4966394;28;20197;-59
2023/04/08 02:19:44;;;;;;;12.10;7.83;;;6.00;99.90;;;;;;4971534;28;20618;-57
2023/04/08 02:22:19;;;;;;;13.90;8.13;;;6.00;99.90;;;;;;4978969;28;20197;-55
2023/04/08 02:24:46;;;;;;;10.03;7.93;;;6.00;99.90;;;;;;4999996;28;20598;-50
2023/04/08 02:27:15;;;;;;;11.67;8.10;;;6.00;99.90;;;;;;4968866;28;20814;-50
2023/04/08 02:29:45;;;;;;;12.60;8.70;;;6.00;99.90;;;;;;4991433;28;20213;-57
2023/04/08 02:32:12;;;;;;;13.80;8.27;;;6.00;99.90;;;;;;5004774;28;20220;-55
2023/04/08 02:34:41;;;;;;;12.10;8.03;;;6.00;99.90;;;;;;4988313;28;20224;-57
2023/04/08 02:37:09;;;;;;;12.37;8.07;;;6.00;99.90;;;;;;5008184;28;20192;-52
2023/04/08 02:39:36;;;;;;;11.37;8.07;;;6.00;99.90;;;;;;5002335;28;20198;-58
2023/04/08 02:42:04;;;;;;;11.93;7.87;;;5.90;99.90;;;;;;4983737;28;20193;-58
2023/04/08 02:44:31;;;;;;;12.70;8.60;;;5.90;99.90;;;;;;4981481;28;20622;-58
2023/04/08 02:47:02;;;;;;;12.40;8.23;;;6.00;99.90;;;;;;4993842;28;20916;-56
2023/04/08 02:49:29;;;;;;;12.90;9.10;;;5.90;99.90;;;;;;4975618;28;20209;-59
2023/04/08 02:51:58;;;;;;;13.50;9.17;;;5.90;99.90;;;;;;4988560;28;20206;-56
2023/04/08 02:54:25;;;;;;;14.77;8.67;;;6.00;99.90;;;;;;5004402;28;20229;-55
2023/04/08 02:56:52;;;;;;;13.53;8.90;;;6.00;99.90;;;;;;4964591;28;20433;-50
2023/04/08 02:59:19;;;;;;;13.63;8.73;;;5.90;99.90;;;;;;5002328;28;20216;-49
2023/04/08 03:01:46;;;;;;;11.53;8.50;;;5.90;99.90;;;;;;4988349;28;20207;-54
2023/04/08 03:04:12;;;;;;;13.70;9.40;;;5.90;99.90;;;;;;4993548;28;20217;-55
2023/04/08 03:06:39;;;;;;;13.87;9.40;;;5.80;99.90;;;;;;5005699;28;20208;-57
2023/04/08 03:09:07;;;;;;;19.07;9.30;;;5.80;99.90;;;;;;5020787;28;20192;-49
2023/04/08 03:11:34;;;;;;;13.37;8.60;;;5.80;99.90;;;;;;5002096;28;20205;-56
2023/04/08 03:14:01;;;;;;;14.93;9.07;;;5.80;99.90;;;;;;4987862;28;21011;-52
2023/04/08 03:16:28;;;;;;;14.90;9.60;;;5.80;99.90;;;;;;4985023;28;20207;-57
2023/04/08 03:18:55;;;;;;;13.37;9.77;;;5.80;99.90;;;;;;4993812;28;20204;-49
2023/04/08 03:21:23;;;;;;;14.03;10.07;;;5.80;99.90;;;;;;4999424;28;20244;-53
2023/04/08 03:23:53;;;;;;;16.27;10.23;;;5.70;99.90;;;;;;4984468;28;20300;-52
2023/04/08 03:26:20;;;;;;;15.20;10.20;;;5.70;99.90;;;;;;4983272;28;20194;-51
2023/04/08 03:28:47;;;;;;;15.23;9.93;;;5.70;99.90;;;;;;4961523;28;20344;-56
2023/04/08 03:31:15;;;;;;;15.50;10.50;;;5.70;99.90;;;;;;4966296;28;20193;-55
2023/04/08 03:33:42;;;;;;;18.10;10.07;;;5.70;99.90;;;;;;4977922;28;20307;-58
2023/04/08 03:36:08;;;;;;;18.60;11.40;;;5.70;99.90;;;;;;4975645;28;20212;-51
2023/04/08 03:38:35;;;;;;;14.27;10.43;;;5.70;99.90;;;;;;4980983;28;20256;-56
2023/04/08 03:41:02;;;;;;;16.87;10.70;;;5.70;99.90;;;;;;4982538;28;20193;-52
2023/04/08 03:43:31;;;;;;;17.03;11.03;;;5.70;99.90;;;;;;4972956;28;20226;-57
2023/04/08 03:45:58;;;;;;;15.87;11.93;;;5.70;99.90;;;;;;4962912;28;20197;-53
2023/04/08 03:48:25;;;;;;;16.50;11.33;;;5.70;99.90;;;;;;4973077;28;20735;-55
2023/04/08 03:50:52;;;;;;;17.37;11.80;;;5.70;99.90;;;;;;4980109;28;20263;-50
2023/04/08 03:53:19;;;;;;;23.73;12.47;;;5.80;99.90;;;;;;4974877;28;20245;-53
2023/04/08 03:55:49;;;;;;;17.10;12.03;;;5.70;99.90;;;;;;4979580;28;20194;-50
2023/04/08 03:58:16;;;;;;;17.60;12.13;;;5.80;99.90;;;;;;4975909;28;20193;-54
2023/04/08 04:00:45;;;;;;;20.63;12.83;;;5.70;99.90;;;;;;4949582;28;20770;-51
2023/04/08 04:03:12;;;;;;;20.67;12.80;;;5.70;99.90;;;;;;4971958;28;20305;-54
2023/04/08 04:05:38;;;;;;;21.23;12.03;;;5.70;99.90;;;;;;4980491;28;20193;-52
2023/04/08 04:08:06;;;;;;;21.30;12.17;;;5.70;99.90;;;;;;4972011;28;20578;-54
2023/04/08 04:10:33;;;;;;;17.73;11.90;;;5.70;99.90;;;;;;4976393;28;20272;-53
2023/04/08 04:13:00;;;;;;;21.47;12.37;;;5.60;99.90;;;;;;4969270;28;20709;-54
2023/04/08 04:15:27;;;;;;;20.97;11.97;;;5.60;99.90;;;;;;4960946;28;20654;-57
2023/04/08 04:17:56;;;;;;;24.57;11.33;;;5.70;99.90;;;;;;4972732;28;20542;-54
2023/04/08 04:20:24;;;;;;;21.57;12.30;;;5.70;99.90;;;;;;4980761;28;20197;-57
2023/04/08 04:22:51;;;;;;;19.27;10.80;;;5.60;99.90;;;;;;4971414;28;20236;-54
2023/04/08 04:25:18;;;;;;;19.33;10.73;;;5.60;99.90;;;;;;4988208;28;20199;-58
2023/04/08 04:27:45;;;;;;;19.23;11.53;;;5.60;99.90;;;;;;4994259;28;21010;-52
2023/04/08 04:30:14;;;;;;;18.23;10.60;;;5.60;99.90;;;;;;4978429;28;20220;-56
2023/04/08 04:32:41;;;;;;;20.07;11.27;;;5.50;99.90;;;;;;4999529;28;20225;-49
2023/04/08 04:35:13;;;;;;;20.63;11.47;;;5.50;99.90;;;;;;4989552;28;20263;-56
2023/04/08 04:37:40;;;;;;;24.87;12.57;;;5.50;99.90;;;;;;4999112;28;20932;-60
2023/04/08 04:40:08;;;;;;;24.03;12.17;;;5.50;99.90;;;;;;4986805;28;20275;-53
2023/04/08 04:42:34;;;;;;;23.60;12.83;;;5.50;99.90;;;;;;4995039;28;21005;-53
2023/04/08 04:45:02;;;;;;;21.30;12.07;;;5.50;99.90;;;;;;4985540;28;20294;-53
2023/04/08 04:47:31;;;;;;;24.17;14.37;;;5.50;99.90;;;;;;4991043;28;20827;-58
2023/04/08 04:49:59;;;;;;;17.63;11.97;;;5.50;99.90;;;;;;4992591;28;20204;-50
2023/04/08 04:52:27;;;;;;;21.87;12.70;;;5.50;99.90;;;;;;4999399;28;20298;-57
2023/04/08 04:54:54;;;;;;;20.97;13.03;;;5.50;99.90;;;;;;4991196;28;20731;-53
2023/04/08 04:57:21;;;;;;;25.00;12.40;;;5.50;99.90;;;;;;5003120;28;20192;-57
2023/04/08 04:59:47;;;;;;;24.90;13.43;;;5.50;99.90;;;;;;5004337;28;20949;-51
2023/04/08 05:02:14;;;;;;;26.43;11.80;;;5.50;99.90;;;;;;4977383;28;20208;-49
2023/04/08 05:04:41;;;;;;;20.87;12.03;;;5.50;99.90;;;;;;4985942;28;20200;-57
2023/04/08 05:07:09;;;;;;;21.80;12.43;;;5.50;99.90;;;;;;4993466;28;20200;-56
2023/04/08 05:09:37;;;;;;;27.00;14.53;;;5.50;99.90;;;;;;4986583;28;20298;-57
2023/04/08 05:12:05;;;;;;;25.30;14.20;;;5.40;99.90;;;;;;4999955;28;20205;-52
2023/04/08 05:14:32;;;;;;;27.40;15.07;;;5.40;99.90;;;;;;5005261;28;20295;-56
2023/04/08 05:16:59;;;;;;;26.87;15.13;;;5.40;99.90;;;;;;4995748;28;20204;-50
2023/04/08 05:19:26;;;;;;;25.17;14.60;;;5.40;99.90;;;;;;4983321;28;20208;-55
2023/04/08 05:21:53;;;;;;;28.43;15.37;;;5.40;99.90;;;;;;4978776;28;20283;-56
2023/04/08 05:24:19;;;;;;;27.40;16.33;;;5.40;99.90;;;;;;4976891;28;20312;-49
2023/04/08 05:26:51;;;;;;;25.00;14.90;;;5.40;99.90;;;;;;4973787;28;20232;-57
2023/04/08 05:29:18;;;;;;;25.60;14.43;;;5.40;99.90;;;;;;4985003;28;20201;-51
2023/04/08 05:31:45;;;;;;;28.67;15.60;;;5.40;99.90;;;;;;4964173;28;20210;-56
2023/04/08 05:34:12;;;;;;;28.50;14.93;;;5.40;99.90;;;;;;4974297;28;20233;-54
2023/04/08 05:36:39;;;;;;;23.30;14.03;;;5.40;99.90;;;;;;4964271;28;20225;-55
2023/04/08 05:39:06;;;;;;;24.87;12.90;;;5.40;99.90;;;;;;4988332;28;21822;-51
2023/04/08 05:41:33;;;;;;;26.97;13.37;;;5.40;99.90;;;;;;4977101;28;20610;-58
2023/04/08 05:44:01;;;;;;;23.03;13.90;;;5.40;99.90;;;;;;4983110;28;20201;-51
2023/04/08 05:46:28;;;;;;;18.40;11.73;;;5.40;99.90;;;;;;4984789;28;20304;-52
2023/04/08 05:48:55;;;;;;;24.63;13.30;;;5.40;99.90;;;;;;4949333;28;20213;-54
2023/04/08 05:51:22;;;;;;;24.60;13.60;;;5.40;99.90;;;;;;4969990;28;20224;-50
2023/04/08 05:53:49;;;;;;;26.17;14.20;;;5.40;99.90;;;;;;4975694;28;20613;-52
2023/04/08 05:56:15;;;;;;;31.07;15.07;;;5.40;99.90;;;;;;4970853;28;20565;-48
2023/04/08 05:58:42;;;;;;;30.20;14.47;;;5.50;99.90;;;;;;4982462;28;20197;-56
2023/04/08 06:01:10;;;;;;;24.60;13.80;;;5.50;99.90;;;;;;4982743;28;20200;-56
2023/04/08 06:03:37;;;;;;;29.00;14.70;;;5.50;99.90;;;;;;4958388;28;20232;-58
2023/04/08 06:06:04;;;;;;;22.30;14.07;;;5.50;99.90;;;;;;4979786;28;20185;-53
2023/04/08 06:08:31;;;;;;;24.87;13.97;;;5.50;99.90;;;;;;4973996;28;20209;-56
2023/04/08 06:10:58;;;;;;;27.70;13.60;;;5.50;99.90;;;;;;4968266;28;20209;-51
2023/04/08 06:13:25;;;;;;;29.47;14.20;;;5.50;99.90;;;;;;4984558;28;20209;-50
2023/04/08 06:15:51;;;;;;;27.47;14.03;;;5.60;99.90;;;;;;4976514;28;20951;-56
2023/04/08 06:18:20;;;;;;;26.47;13.60;;;5.60;99.90;;;;;;4961501;28;20207;-58
2023/04/08 06:20:47;;;;;;;26.23;12.90;;;5.60;99.90;;;;;;4973334;28;20200;-52
2023/04/08 06:23:14;;;;;;;25.57;12.53;;;5.60;99.90;;;;;;4974605;28;20736;-56
2023/04/08 06:25:40;;;;;;;21.93;12.80;;;5.60;99.90;;;;;;4974653;28;20201;-53
2023/04/08 06:28:07;;;;;;;20.33;11.53;;;5.60;99.90;;;;;;4976760;28;20197;-53
2023/04/08 06:30:34;;;;;;;18.83;12.33;;;5.60;99.90;;;;;;4973987;28;20287;-55
2023/04/08 06:33:00;;;;;;;21.20;11.17;;;5.60;99.90;;;;;;4972723;28;20225;-50
2023/04/08 06:35:29;;;;;;;18.10;11.10;;;5.60;99.90;;;;;;4963497;28;20240;-56
2023/04/08 06:37:56;;;;;;;16.73;10.33;;;5.60;99.90;;;;;;4982737;28;20193;-51
2023/04/08 06:40:23;;;;;;;17.97;10.20;;;5.60;99.90;;;;;;4965834;28;20946;-55
2023/04/08 06:42:49;;;;;;;17.27;10.10;;;5.60;99.90;;;;;;4970496;28;20229;-55
2023/04/08 06:45:23;;;;;;;14.97;9.60;;;5.60;99.90;;;;;;4968554;28;20275;-55
2023/04/08 06:47:49;;;;;;;26.13;11.20;;;5.60;99.90;;;;;;4975228;28;20189;-51
2023/04/08 06:50:16;;;;;;;16.47;10.03;;;5.60;99.90;;;;;;4974663;28;20229;-51
2023/04/08 06:52:44;;;;;;;22.63;12.03;;;5.60;99.90;;;;;;4969387;28;20220;-52
2023/04/08 06:55:11;;;;;;;18.70;11.13;;;5.60;99.90;;;;;;4971058;28;20217;-54
2023/04/08 06:57:38;;;;;;;22.57;11.30;;;5.70;99.90;;;;;;4964329;28;21021;-54
2023/04/08 07:00:06;;;;;;;17.40;11.00;;;5.70;99.90;;;;;;4976390;28;20206;-54
2023/04/08 07:02:33;;;;;;;20.30;11.10;;;5.70;99.90;;;;;;4976471;28;20247;-53
2023/04/08 07:05:00;;;;;;;16.63;10.83;;;5.70;99.90;;;;;;4983291;28;20201;-51
2023/04/08 07:07:27;;;;;;;19.13;11.07;;;5.70;99.90;;;;;;4967373;28;20324;-52
2023/04/08 07:09:55;;;;;;;22.40;10.80;;;5.70;99.90;;;;;;4978025;28;20210;-52
2023/04/08 07:12:22;;;;;;;17.60;10.70;;;5.70;99.90;;;;;;4972437;28;20308;-52
2023/04/08 07:14:49;;;;;;;20.63;11.20;;;5.70;99.90;;;;;;4967930;28;20213;-53
2023/04/08 07:17:16;;;;;;;19.77;11.47;;;5.70;99.90;;;;;;4982431;28;20231;-53
2023/04/08 07:19:43;;;;;;;17.27;10.07;;;5.70;99.90;;;;;;4972059;28;20335;-52
2023/04/08 07:22:10;;;;;;;18.67;10.93;;;5.70;99.90;;;;;;4980051;28;20201;-54
2023/04/08 07:24:37;;;;;;;16.53;9.80;;;5.70;99.90;;;;;;4945266;28;20670;-52
2023/04/08 07:27:05;;;;;;;15.23;9.83;;;5.70;99.90;;;;;;4975127;28;20197;-52
2023/04/08 07:29:31;;;;;;;18.20;9.67;;;5.70;99.90;;;;;;4970525;28;20202;-53
2023/04/08 07:31:59;;;;;;;15.67;9.83;;;5.70;99.90;;;;;;4982157;28;20687;-51
2023/04/08 07:34:26;;;;;;;15.40;9.73;;;5.70;99.90;;;;;;4975027;28;20578;-54
2023/04/08 07:36:54;;;;;;;17.23;9.47;;;5.80;99.90;;;;;;4982616;28;20217;-51
2023/04/08 07:39:20;;;;;;;16.57;9.67;;;5.80;99.90;;;;;;4966757;28;20217;-50
2023/04/08 07:41:47;;;;;;;17.87;9.13;;;5.80;99.90;;;;;;4955566;28;20209;-52
2023/04/08 07:44:18;;;;;;;16.93;9.87;;;5.80;99.90;;;;;;4972764;28;20291;-53
2023/04/08 07:46:49;;;;;;;13.93;9.63;;;5.80;99.90;;;;;;4977864;28;20288;-51
2023/04/08 07:49:17;;;;;;;19.03;10.53;;;5.80;99.90;;;;;;4980563;28;20276;-52
2023/04/08 07:51:43;;;;;;;18.00;10.13;;;5.80;99.90;;;;;;4977389;28;20217;-54
2023/04/08 07:54:11;;;;;;;13.93;9.43;;;5.70;99.90;;;;;;4955884;28;20241;-52
2023/04/08 07:56:39;;;;;;;17.10;10.30;;;5.70;99.90;;;;;;4959826;28;20216;-53
2023/04/08 07:59:07;;;;;;;17.23;10.43;;;5.70;99.90;;;;;;4975909;28;20283;-50
2023/04/08 08:01:35;;;;;;;19.17;10.13;;;5.70;99.90;;;;;;4978045;28;20982;-49
2023/04/08 08:04:03;;;;;;;20.67;11.10;;;5.70;99.90;;;;;;4974821;28;20221;-54
2023/04/08 08:06:31;;;;;;;15.57;10.17;;;5.80;99.90;;;;;;4974675;28;21035;-50
2023/04/08 08:08:58;;;;;;;17.43;10.57;;;5.80;99.90;;;;;;4947470;28;20205;-49
2023/04/08 08:11:26;;;;;;;18.20;10.60;;;5.90;99.90;;;;;;4979575;28;20201;-49
2023/04/08 08:13:53;;;;;;;21.13;11.30;;;5.90;99.90;;;;;;4961364;28;20226;-49
2023/04/08 08:16:40;;;;;;;17.43;9.90;;;5.90;99.90;;;;;;4970559;28;20284;-53
2023/04/08 08:19:07;;;;;;;13.40;8.83;;;5.90;99.90;;;;;;4979308;28;20209;-50
2023/04/08 08:21:36;;;;;;;19.07;9.90;;;6.00;99.90;;;;;;4974056;28;20243;-52
2023/04/08 08:24:03;;;;;;;14.97;9.73;;;6.00;99.90;;;;;;4973328;28;20228;-52
2023/04/08 08:26:31;;;;;;;17.80;9.40;;;6.00;99.90;;;;;;5014525;28;20848;-50
2023/04/08 08:28:58;;;;;;;15.70;10.07;;;6.00;99.90;;;;;;4985180;28;21219;-50
2023/04/08 08:31:25;;;;;;;14.67;9.77;;;6.00;99.90;;;;;;4997426;28;20859;-52
2023/04/08 08:33:53;;;;;;;14.07;9.00;;;6.10;99.90;;;;;;4999354;28;20208;-50
2023/04/08 08:36:21;;;;;;;15.20;9.03;;;6.10;99.90;;;;;;4999107;28;20284;-51
2023/04/08 08:38:48;;;;;;;15.53;9.33;;;6.10;99.90;;;;;;5001405;28;20204;-50
2023/04/08 08:41:36;;;;;;;17.83;10.60;;;6.10;99.90;;;;;;4990721;28;20585;-52
2023/04/08 08:44:06;;;;;;;16.03;10.53;;;6.20;99.90;;;;;;4986803;28;20229;-52
2023/04/08 08:46:32;;;;;;;18.97;10.30;;;6.20;99.90;;;;;;5003624;28;20568;-51
2023/04/08 08:49:01;;;;;;;15.57;11.23;;;6.30;99.90;;;;;;4990212;28;20196;-51
2023/04/08 08:51:31;;;;;;;19.20;9.87;;;6.30;99.90;;;;;;5000567;28;20362;-51
2023/04/08 08:54:02;;;;;;;13.57;9.63;;;6.40;99.90;;;;;;5002848;28;20238;-50
2023/04/08 08:56:29;;;;;;;16.63;9.67;;;6.40;99.90;;;;;;4990397;28;20262;-51
2023/04/08 08:58:57;;;;;;;16.60;8.90;;;6.40;99.90;;;;;;4992209;28;20200;-52
2023/04/08 09:01:31;;;;;;;14.53;9.87;;;6.40;99.90;;;;;;4998134;28;20209;-52
2023/04/08 09:04:12;;;;;;;14.07;8.83;;;6.40;99.90;;;;;;4988038;28;20282;-51
2023/04/08 09:06:40;;;;;;;13.33;9.13;;;6.50;99.90;;;;;;5002786;28;20291;-52
2023/04/08 09:09:09;;;;;;;14.60;9.23;;;6.50;99.90;;;;;;5003654;28;20236;-52
2023/04/08 09:11:37;;;;;;;16.30;9.00;;;6.50;99.90;;;;;;4999801;28;20232;-53
2023/04/08 09:14:05;;;;;;;13.83;8.70;;;6.60;99.90;;;;;;4983723;28;20422;-50
2023/04/08 09:16:32;;;;;;;15.03;9.90;;;6.70;99.90;;;;;;4993129;28;20563;-53
2023/04/08 09:19:10;;;;;;;12.27;9.33;;;6.80;99.90;;;;;;4988752;28;20285;-51
2023/04/08 09:21:37;;;;;;;17.80;10.70;;;6.90;99.90;;;;;;5004687;28;20201;-54
2023/04/08 09:24:04;;;;;;;20.57;10.33;;;7.00;99.90;;;;;;5003217;28;20230;-51
2023/04/08 09:26:31;;;;;;;15.97;10.03;;;7.00;99.90;;;;;;5005871;28;20197;-52
2023/04/08 09:28:59;;;;;;;19.23;11.50;;;7.00;99.90;;;;;;4973429;28;20213;-53
2023/04/08 09:31:28;;;;;;;17.50;10.93;;;7.10;99.90;;;;;;4998048;28;20197;-54
2023/04/08 09:33:57;;;;;;;19.23;11.93;;;7.10;99.90;;;;;;4982655;28;20328;-54
2023/04/08 09:36:26;;;;;;;16.23;11.77;;;7.20;99.90;;;;;;5004816;28;20725;-54
2023/04/08 09:38:54;;;;;;;15.03;10.37;;;7.20;99.90;;;;;;5000244;28;20197;-49
2023/04/08 09:41:22;;;;;;;20.80;12.13;;;7.10;99.90;;;;;;5002889;28;20196;-52
2023/04/08 09:43:51;;;;;;;16.53;11.10;;;7.10;99.90;;;;;;4969291;28;20846;-54
2023/04/08 09:46:19;;;;;;;17.00;12.03;;;7.10;99.90;;;;;;4996214;28;20201;-51
2023/04/08 09:48:51;;;;;;;18.03;10.87;;;7.10;99.90;;;;;;4988701;28;20274;-50
2023/04/08 09:51:20;;;;;;;18.70;11.60;;;7.10;99.90;;;;;;5004540;28;20232;-54
2023/04/08 09:53:53;;;;;;;15.47;10.97;;;7.10;99.90;;;;;;5002619;28;20224;-54
2023/04/08 09:56:21;;;;;;;16.60;11.77;;;7.10;99.90;;;;;;5005600;28;20228;-51
2023/04/08 09:58:54;;;;;;;20.93;11.20;;;7.10;99.90;;;;;;4978752;28;20227;-54
2023/04/08 10:01:38;;;;;;;16.17;11.80;;;7.20;99.90;;;;;;4991858;28;20212;-55
2023/04/08 10:04:08;;;;;;;18.77;12.30;;;7.20;99.90;;;;;;4994933;28;20232;-51
2023/04/08 10:06:38;;;;;;;17.87;12.50;;;7.20;99.90;;;;;;4995602;28;20197;-52
2023/04/08 10:09:07;;;;;;;16.47;11.60;;;7.10;99.90;;;;;;5002571;28;20797;-51
2023/04/08 10:11:35;;;;;;;14.77;10.13;;;7.10;99.90;;;;;;5000622;28;20290;-52
2023/04/08 10:14:02;;;;;;;16.47;10.97;;;7.20;99.90;;;;;;4976306;28;20224;-54
2023/04/08 10:16:29;;;;;;;18.10;10.97;;;7.10;99.90;;;;;;4995230;28;20217;-54
2023/04/08 10:18:57;;;;;;;13.57;10.27;;;7.10;99.90;;;;;;4994569;28;20323;-51
2023/04/08 10:21:38;;;;;;;15.77;10.10;;;7.20;99.90;;;;;;4996734;28;20213;-55
2023/04/08 10:24:10;;;;;;;15.67;9.87;;;7.20;99.90;;;;;;5004519;28;20903;-54
2023/04/08 10:26:40;;;;;;;16.07;10.37;;;7.20;99.90;;;;;;4995969;28;20278;-52
2023/04/08 10:29:37;;;;;;;14.43;10.27;;;7.20;99.90;;;;;;4998053;28;20185;-51
2023/04/08 10:32:04;;;;;;;18.53;10.50;;;7.20;99.90;;;;;;4921727;28;20219;-51
2023/04/08 10:34:31;;;;;;;13.83;10.13;;;7.10;99.90;;;;;;4972338;28;20212;-53
2023/04/08 10:37:00;;;;;;;16.93;10.83;;;7.20;99.90;;;;;;4992665;28;20564;-53
2023/04/08 10:39:30;;;;;;;17.53;11.13;;;7.30;99.90;;;;;;4996139;28;20197;-53
2023/04/08 10:41:57;;;;;;;17.77;11.00;;;7.30;99.90;;;;;;4991698;28;20926;-55
2023/04/08 10:44:26;;;;;;;16.20;10.57;;;7.30;99.90;;;;;;5000965;28;20315;-54
2023/04/08 10:46:54;;;;;;;24.00;12.03;;;7.30;99.90;;;;;;4983965;28;20200;-55
2023/04/08 10:49:21;;;;;;;17.43;11.47;;;7.30;99.90;;;;;;4991665;28;20258;-53
2023/04/08 10:51:49;;;;;;;19.50;12.13;;;7.30;99.90;;;;;;4988712;28;20212;-51
2023/04/08 10:54:17;;;;;;;21.17;12.00;;;7.30;99.90;;;;;;5008480;28;20240;-52
2023/04/08 10:56:47;;;;;;;17.97;10.93;;;7.30;99.90;;;;;;4995813;28;20226;-53
2023/04/08 10:59:16;;;;;;;19.07;11.07;;;7.30;99.90;;;;;;5000378;28;20193;-53
2023/04/08 11:01:44;;;;;;;19.90;12.50;;;7.20;99.90;;;;;;4986865;28;20291;-50
2023/04/08 11:04:17;;;;;;;21.27;12.20;;;7.30;99.90;;;;;;4996773;28;20299;-50
2023/04/08 11:06:46;;;;;;;16.00;12.00;;;7.20;99.90;;;;;;4987783;28;20339;-53
2023/04/08 11:09:14;;;;;;;18.90;12.30;;;7.20;99.90;;;;;;5003097;28;20215;-55
2023/04/08 11:11:42;;;;;;;21.80;12.87;;;7.20;99.90;;;;;;5003360;28;20206;-53
2023/04/08 11:14:10;;;;;;;16.60;11.83;;;7.20;99.90;;;;;;5002627;28;20235;-55
2023/04/08 11:16:38;;;;;;;20.57;12.83;;;7.20;99.90;;;;;;4978464;28;20240;-54
2023/04/08 11:19:05;;;;;;;17.47;12.30;;;7.10;99.90;;;;;;4992504;28;20690;-53
2023/04/08 11:21:37;;;;;;;19.73;11.83;;;7.10;99.90;;;;;;4995082;28;20197;-54
2023/04/08 11:24:10;;;;;;;20.57;11.90;;;7.10;99.90;;;;;;4981597;28;20236;-53
2023/04/08 11:26:38;;;;;;;15.03;10.43;;;7.00;99.90;;;;;;5003159;28;20193;-53
2023/04/08 11:29:06;;;;;;;14.23;10.97;;;7.00;99.90;;;;;;4999232;28;20288;-55
2023/04/08 11:31:35;;;;;;;18.30;11.40;;;7.00;99.90;;;;;;5001394;28;20196;-53
2023/04/08 11:34:02;;;;;;;19.30;11.13;;;7.10;99.90;;;;;;4968822;28;20225;-55
2023/04/08 11:36:29;;;;;;;17.67;11.17;;;7.20;99.90;;;;;;4988161;28;20224;-51
2023/04/08 11:38:57;;;;;;;19.03;12.07;;;7.20;99.90;;;;;;4990282;28;20215;-53
2023/04/08 11:41:23;;;;;;;18.93;11.43;;;7.20;99.90;;;;;;5006631;28;20941;-53
2023/04/08 11:43:52;;;;;;;17.40;11.60;;;7.20;99.90;;;;;;5004529;28;20217;-55
2023/04/08 11:46:19;;;;;;;15.53;10.93;;;7.20;99.90;;;;;;4997856;28;20204;-55
2023/04/08 11:49:02;;;;;;;17.50;10.60;;;7.30;99.90;;;;;;4971755;28;20230;-53
2023/04/08 11:51:29;;;;;;;16.90;11.07;;;7.30;99.90;;;;;;4980710;28;20283;-53
2023/04/08 11:53:56;;;;;;;16.23;11.73;;;7.30;99.90;;;;;;4992961;28;20224;-52
2023/04/08 11:56:24;;;;;;;18.57;10.93;;;7.40;99.90;;;;;;4991963;28;20847;-52
2023/04/08 11:58:52;;;;;;;17.73;11.30;;;7.40;99.90;;;;;;5001834;28;20208;-51
2023/04/08 12:01:20;;;;;;;17.77;11.47;;;7.40;99.90;;;;;;4998488;28;20203;-51
2023/04/08 12:03:55;;;;;;;15.73;11.37;;;7.30;99.90;;;;;;4977290;28;20224;-50
2023/04/08 12:06:26;;;;;;;18.77;11.13;;;7.30;99.90;;;;;;4994703;28;20211;-50
2023/04/08 12:08:53;;;;;;;17.10;11.87;;;7.30;99.90;;;;;;4992125;28;20204;-50
2023/04/08 12:11:21;;;;;;;16.57;10.80;;;7.40;99.90;;;;;;4991852;28;21123;-53
2023/04/08 12:13:49;;;;;;;16.23;11.10;;;7.50;99.90;;;;;;4988445;28;20542;-50
2023/04/08 12:16:16;;;;;;;15.70;11.20;;;7.50;99.90;;;;;;4991881;28;20216;-53
2023/04/08 12:18:43;;;;;;;18.33;11.23;;;7.50;99.90;;;;;;4998266;28;20205;-54
2023/04/08 12:21:12;;;;;;;19.03;11.40;;;7.50;99.90;;;;;;4967393;28;20212;-51
2023/04/08 12:23:41;;;;;;;18.87;12.63;;;7.50;99.90;;;;;;5002494;28;20228;-54
2023/04/08 12:26:08;;;;;;;23.07;12.13;;;7.40;99.90;;;;;;4988882;28;20201;-52
2023/04/08 12:28:35;;;;;;;15.67;11.70;;;7.40;99.90;;;;;;4993453;28;20567;-53
2023/04/08 12:31:02;;;;;;;17.30;12.17;;;7.40;99.90;;;;;;4996114;28;20216;-55
2023/04/08 12:33:30;;;;;;;15.07;11.40;;;7.40;99.90;;;;;;5000232;28;20226;-54
2023/04/08 12:35:58;;;;;;;15.90;11.70;;;7.40;99.90;;;;;;4979555;28;20569;-53
2023/04/08 12:38:25;;;;;;;16.10;10.63;;;7.50;99.90;;;;;;4995182;28;20274;-53
2023/04/08 12:40:53;;;;;;;12.87;10.50;;;7.50;99.90;;;;;;4992988;28;20205;-53
2023/04/08 12:43:20;;;;;;;13.73;10.53;;;7.50;99.90;;;;;;4985171;28;20291;-54
2023/04/08 12:45:48;;;;;;;14.97;10.70;;;7.60;99.90;;;;;;4997027;28;20191;-51